Weather at Glensanda Airstrip

Public forecast

Using degrees Celsius for public forecast. Weather courtesy of forecast.io.

Closest aviation weather report (METAR) to Glensanda Airstrip

Report is more than 6 hours old.

Closest report is Oban Airport, 7.6 nm (14.1 km) SE.

2024/05/29 15:50 (retrieved 15 hours ago)

EGEO 291550Z 30011KT 280V340 9999 FEW024 BKN034 15/11 Q1007

Closest aviation forecast (TAF) to Glensanda Airstrip

Closest forecast is Glasgow International Airport, 55.6 nm (103.1 km) SE.

2024/05/30 06:00 (retrieved 33 minutes ago)

TAF EGPF 300454Z 3006/3106 30009KT 9999 FEW035 PROB30 TEMPO 3012/3018 8000 SHRA PROB30 3100/3106 8000